Time;durP1;ratioP1;P1;durP2;ratioP2;P2;SDS_P1;SDS_P2;PMS_P1;PMS_P2;Temp;Humidity;BMP_temperature;BMP_pressure;BME280_temperature;BME280_humidity;BME280_pressure;Samples;Min_cycle;Max_cycle;Signal;HPM_P1;HPM_P2
2022/04/13 00:00:46;;;;;;;0.63;0.63;;;9.90;99.90;;;;;;5093896;28;20073;-71
2022/04/13 00:03:12;;;;;;;0.32;0.32;;;9.90;99.90;;;;;;5094429;28;20090;-71
2022/04/13 00:05:38;;;;;;;1.30;0.47;;;9.80;99.90;;;;;;5094146;28;20068;-71
2022/04/13 00:08:07;;;;;;;0.30;0.30;;;9.90;99.90;;;;;;5094123;28;20127;-71
2022/04/13 00:10:36;;;;;;;0.30;0.30;;;9.90;99.90;;;;;;5094388;28;20077;-71
2022/04/13 00:13:02;;;;;;;0.50;0.30;;;9.90;99.90;;;;;;5094183;28;20107;-71
2022/04/13 00:15:28;;;;;;;0.40;0.40;;;9.90;96.20;;;;;;5093957;28;20402;-71
2022/04/13 00:17:54;;;;;;;0.10;0.10;;;9.90;99.90;;;;;;5093971;28;20039;-71
2022/04/13 00:20:22;;;;;;;0.20;0.20;;;9.90;99.90;;;;;;5093925;28;20055;-71
2022/04/13 00:22:48;;;;;;;0.35;0.35;;;10.00;99.90;;;;;;5094162;28;20098;-71
2022/04/13 00:25:14;;;;;;;0.70;0.70;;;9.90;99.90;;;;;;5093690;28;20487;-71
2022/04/13 00:27:40;;;;;;;0.10;0.10;;;9.90;99.90;;;;;;5093791;28;20043;-71
2022/04/13 00:30:07;;;;;;;0.20;0.20;;;9.90;99.90;;;;;;5093401;28;20051;-71
2022/04/13 00:32:35;;;;;;;0.55;0.55;;;9.90;99.90;;;;;;5093909;28;20093;-71
2022/04/13 00:35:04;;;;;;;1.23;0.82;;;9.90;99.90;;;;;;5093604;28;20036;-71
2022/04/13 00:37:31;;;;;;;5.90;0.45;;;9.80;99.90;;;;;;5093652;28;20530;-71
2022/04/13 00:39:56;;;;;;;0.10;0.10;;;9.90;99.90;;;;;;5093442;28;20056;-71
2022/04/13 00:42:22;;;;;;;0.77;0.77;;;9.90;99.90;;;;;;5093437;28;20035;-71
2022/04/13 00:44:48;;;;;;;0.10;0.10;;;9.90;99.90;;;;;;5093791;28;20036;-71
2022/04/13 00:47:14;;;;;;;0.20;0.20;;;9.90;99.90;;;;;;5093402;28;20046;-71
2022/04/13 00:49:41;;;;;;;3.10;0.90;;;9.90;99.90;;;;;;5093827;28;20048;-71
2022/04/13 00:52:07;;;;;;;0.10;0.10;;;9.90;99.90;;;;;;5093769;28;20028;-71
2022/04/13 00:54:34;;;;;;;0.80;0.40;;;9.80;99.90;;;;;;5092367;28;20564;-71
2022/04/13 00:57:08;;;;;;;0.30;0.30;;;9.90;99.90;;;;;;5093558;28;20032;-71
2022/04/13 00:59:37;;;;;;;0.15;0.15;;;9.90;99.90;;;;;;5093549;28;20048;-71
2022/04/13 01:02:05;;;;;;;0.32;0.32;;;9.90;99.90;;;;;;5093481;28;20051;-71
2022/04/13 01:04:33;;;;;;;0.38;0.38;;;9.90;99.90;;;;;;5093528;28;20036;-71
2022/04/13 01:07:01;;;;;;;0.20;0.20;;;9.80;99.90;;;;;;5093482;28;20545;-71
2022/04/13 01:09:29;;;;;;;0.40;0.40;;;9.80;99.90;;;;;;5093208;28;20048;-71
2022/04/13 01:11:55;;;;;;;0.52;0.52;;;9.80;99.90;;;;;;5093470;28;20040;-71
2022/04/13 01:14:21;;;;;;;0.30;0.30;;;9.80;99.90;;;;;;5093190;28;20040;-71
2022/04/13 01:16:47;;;;;;;0.22;0.22;;;9.80;99.90;;;;;;5093399;28;20043;-71
2022/04/13 01:19:16;;;;;;;0.25;0.25;;;9.80;99.90;;;;;;5093319;28;20035;-71
2022/04/13 01:21:48;;;;;;;0.20;0.20;;;9.80;99.90;;;;;;5093121;28;20055;-71
2022/04/13 01:24:15;;;;;;;0.20;0.20;;;9.80;99.90;;;;;;5092778;28;20040;-71
2022/04/13 01:26:41;;;;;;;0.30;0.30;;;9.70;99.90;;;;;;5093285;28;20067;-71
2022/04/13 01:29:07;;;;;;;0.30;0.30;;;9.70;99.90;;;;;;5093051;28;20047;-71
2022/04/13 01:31:34;;;;;;;0.10;0.10;;;9.70;99.90;;;;;;5093191;28;20446;-71
2022/04/13 01:34:00;;;;;;;3.13;0.40;;;9.80;99.90;;;;;;5093248;28;20542;-71
2022/04/13 01:36:27;;;;;;;1.27;0.63;;;9.80;99.90;;;;;;5093211;28;20051;-71
2022/04/13 01:38:53;;;;;;;0.20;0.20;;;9.80;99.90;;;;;;5092853;28;20524;-71
2022/04/13 01:41:19;;;;;;;0.65;0.52;;;9.80;99.90;;;;;;5093406;28;20072;-71
2022/04/13 01:43:45;;;;;;;0.17;0.17;;;9.80;99.90;;;;;;5093310;28;20075;-71
2022/04/13 01:46:11;;;;;;;0.55;0.55;;;9.80;99.90;;;;;;5093131;28;20074;-71
2022/04/13 01:48:37;;;;;;;0.22;0.22;;;9.80;99.90;;;;;;5093091;28;20089;-71
2022/04/13 01:51:03;;;;;;;0.45;0.45;;;9.80;99.90;;;;;;5093192;28;20074;-71
2022/04/13 01:53:29;;;;;;;0.17;0.17;;;9.80;99.90;;;;;;5093352;28;20065;-71
2022/04/13 01:55:55;;;;;;;0.32;0.32;;;9.80;99.90;;;;;;5093196;28;20036;-71
2022/04/13 01:58:21;;;;;;;0.30;0.30;;;9.80;99.90;;;;;;5093214;28;20089;-71
2022/04/13 02:00:54;;;;;;;0.20;0.20;;;9.80;99.90;;;;;;5092964;28;20487;-71
2022/04/13 02:03:21;;;;;;;0.32;0.32;;;9.80;99.90;;;;;;5093302;28;20109;-71
2022/04/13 02:05:48;;;;;;;0.35;0.35;;;9.80;99.90;;;;;;5095623;28;20044;-71
2022/04/13 02:08:15;;;;;;;0.50;0.50;;;9.90;99.90;;;;;;5096771;28;20063;-71
2022/04/13 02:10:40;;;;;;;1.38;1.38;;;9.80;99.90;;;;;;5097016;28;20051;-71
2022/04/13 02:13:06;;;;;;;0.20;0.20;;;9.90;99.90;;;;;;5096656;28;20031;-71
2022/04/13 02:15:32;;;;;;;0.30;0.30;;;9.90;99.90;;;;;;5096655;28;20044;-71
2022/04/13 02:17:58;;;;;;;0.55;0.47;;;9.90;99.90;;;;;;5096816;28;20116;-71
2022/04/13 02:20:24;;;;;;;0.57;0.57;;;9.90;99.90;;;;;;5096819;28;20043;-71
2022/04/13 02:22:50;;;;;;;0.10;0.10;;;9.90;99.90;;;;;;5096817;28;20036;-71
2022/04/13 02:25:15;;;;;;;0.32;0.32;;;9.90;94.00;;;;;;5096245;28;20517;-71
2022/04/13 02:27:42;;;;;;;0.75;0.75;;;9.90;93.30;;;;;;5096337;28;20040;-71
2022/04/13 02:30:09;;;;;;;0.47;0.35;;;9.90;99.20;;;;;;5096742;28;20085;-71
2022/04/13 02:32:44;;;;;;;0.15;0.13;;;9.90;99.90;;;;;;5096626;28;20123;-71
2022/04/13 02:35:11;;;;;;;0.43;0.43;;;9.90;99.90;;;;;;5096171;28;20140;-71
2022/04/13 02:37:38;;;;;;;0.10;0.10;;;9.90;99.90;;;;;;5096148;28;20066;-71
2022/04/13 02:40:06;;;;;;;0.20;0.20;;;9.90;99.90;;;;;;5095687;28;20052;-71
2022/04/13 02:42:35;;;;;;;0.30;0.30;;;9.90;99.90;;;;;;5096005;28;20035;-71
2022/04/13 02:45:02;;;;;;;0.10;0.10;;;9.90;99.90;;;;;;5095979;28;20039;-71
2022/04/13 02:47:29;;;;;;;0.10;0.10;;;10.00;99.90;;;;;;5095734;28;20040;-71
2022/04/13 02:49:55;;;;;;;0.40;0.40;;;9.90;99.90;;;;;;5096094;28;20040;-71
2022/04/13 02:52:22;;;;;;;4.78;0.45;;;10.00;99.90;;;;;;5095586;28;20093;-71
2022/04/13 02:54:48;;;;;;;0.47;0.47;;;10.00;95.70;;;;;;5095267;28;20036;-71
2022/04/13 02:57:13;;;;;;;1.63;1.17;;;10.00;99.90;;;;;;5095830;28;20046;-71
2022/04/13 02:59:39;;;;;;;0.63;0.40;;;10.00;96.20;;;;;;5095823;28;20128;-71
2022/04/13 03:02:05;;;;;;;0.10;0.10;;;10.10;99.90;;;;;;5095450;28;20040;-71
2022/04/13 03:04:34;;;;;;;0.20;0.20;;;10.10;99.90;;;;;;5095637;28;20075;-71
2022/04/13 03:07:00;;;;;;;0.17;0.17;;;10.10;99.90;;;;;;5095655;28;20040;-71
2022/04/13 03:09:26;;;;;;;0.38;0.38;;;10.00;99.90;;;;;;5095258;28;20704;-71
2022/04/13 03:11:52;;;;;;;0.52;0.52;;;10.00;99.90;;;;;;5095198;28;20035;-71
2022/04/13 03:14:18;;;;;;;0.25;0.25;;;10.10;99.10;;;;;;5095443;28;20096;-71
2022/04/13 03:16:44;;;;;;;0.22;0.22;;;10.20;99.90;;;;;;5094221;28;20028;-71
2022/04/13 03:19:10;;;;;;;0.30;0.30;;;10.10;99.90;;;;;;5095065;28;20546;-71
2022/04/13 03:21:36;;;;;;;0.20;0.20;;;10.10;95.70;;;;;;5095356;28;20061;-71
2022/04/13 03:24:02;;;;;;;0.50;0.50;;;10.10;99.90;;;;;;5095023;28;20039;-71
2022/04/13 03:26:28;;;;;;;0.17;0.17;;;10.10;99.90;;;;;;5095249;28;20032;-71
2022/04/13 03:28:54;;;;;;;0.32;0.32;;;10.00;99.90;;;;;;5095103;28;20148;-71
2022/04/13 03:31:20;;;;;;;0.10;0.10;;;10.10;99.90;;;;;;5095061;28;20469;-71
2022/04/13 03:33:46;;;;;;;0.10;0.10;;;10.10;99.90;;;;;;5095074;28;20047;-71
2022/04/13 03:36:13;;;;;;;0.20;0.20;;;10.10;99.90;;;;;;5094805;28;20085;-71
2022/04/13 03:38:39;;;;;;;0.05;0.05;;;10.10;99.90;;;;;;5094887;28;20051;-71
2022/04/13 03:41:04;;;;;;;0.38;0.38;;;10.10;99.90;;;;;;5095061;28;20043;-71
2022/04/13 03:43:30;;;;;;;1.25;1.15;;;10.10;99.90;;;;;;5094903;28;20040;-71
2022/04/13 03:45:56;;;;;;;0.82;0.35;;;10.10;99.90;;;;;;5095091;28;20066;-71
2022/04/13 03:48:22;;;;;;;0.52;0.52;;;10.10;99.90;;;;;;5094849;28;20040;-71
2022/04/13 03:50:49;;;;;;;0.10;0.10;;;10.10;99.90;;;;;;5095192;28;20119;-71
2022/04/13 03:53:16;;;;;;;0.25;0.25;;;10.10;99.90;;;;;;5094675;28;20036;-71
2022/04/13 03:55:41;;;;;;;0.10;0.10;;;10.10;99.90;;;;;;5094485;28;20513;-71
2022/04/13 03:58:07;;;;;;;0.15;0.15;;;10.20;98.90;;;;;;5091348;28;20044;-71
2022/04/13 04:00:33;;;;;;;0.57;0.57;;;10.10;99.90;;;;;;5087792;28;20130;-72
2022/04/13 04:02:59;;;;;;;0.10;0.10;;;10.10;99.90;;;;;;5077257;28;20045;-72
2022/04/13 04:05:25;;;;;;;0.10;0.10;;;10.10;99.90;;;;;;5077760;28;20152;-71
2022/04/13 04:07:51;;;;;;;0.17;0.17;;;10.10;99.90;;;;;;5093665;28;20028;-72
2022/04/13 04:10:17;;;;;;;0.30;0.30;;;10.10;97.70;;;;;;5093977;28;20036;-72
2022/04/13 04:12:43;;;;;;;1.38;0.50;;;10.20;99.90;;;;;;5094414;28;20046;-72
2022/04/13 04:15:10;;;;;;;0.30;0.22;;;10.20;96.90;;;;;;5094588;28;20479;-72
2022/04/13 04:17:37;;;;;;;0.80;0.80;;;10.10;97.00;;;;;;5091027;28;20048;-71
2022/04/13 04:20:04;;;;;;;1.17;0.57;;;10.10;99.90;;;;;;5073591;28;20068;-71
2022/04/13 04:22:30;;;;;;;0.60;0.60;;;10.10;99.90;;;;;;5074061;28;20093;-72
2022/04/13 04:24:59;;;;;;;0.75;0.75;;;10.10;99.90;;;;;;5073762;28;20425;-72
2022/04/13 04:27:26;;;;;;;0.40;0.40;;;10.20;99.90;;;;;;5073689;28;20033;-72
2022/04/13 04:29:51;;;;;;;0.10;0.10;;;10.10;99.90;;;;;;5083856;28;20076;-72
2022/04/13 04:32:17;;;;;;;0.10;0.10;;;10.10;99.90;;;;;;5092295;28;20082;-71
2022/04/13 04:34:43;;;;;;;0.20;0.20;;;10.10;99.90;;;;;;5094221;28;20043;-71
2022/04/13 04:37:09;;;;;;;0.13;0.13;;;10.10;99.90;;;;;;5094237;28;20036;-70
2022/04/13 04:39:35;;;;;;;0.63;0.63;;;10.10;99.90;;;;;;5089770;28;20051;-70
2022/04/13 04:42:02;;;;;;;0.65;0.40;;;10.10;95.70;;;;;;5073657;28;20032;-70
2022/04/13 04:44:28;;;;;;;0.30;0.30;;;10.10;93.00;;;;;;5073298;28;20045;-71
2022/04/13 04:46:54;;;;;;;0.80;0.57;;;10.10;97.70;;;;;;5073483;28;20044;-71
2022/04/13 04:49:19;;;;;;;2.65;0.38;;;10.20;99.90;;;;;;5073502;28;20040;-75
2022/04/13 04:51:45;;;;;;;0.40;0.40;;;10.10;99.90;;;;;;5073521;28;20430;-71
2022/04/13 04:54:11;;;;;;;0.20;0.20;;;10.20;99.90;;;;;;5073404;28;20066;-70
2022/04/13 04:56:37;;;;;;;0.45;0.45;;;10.20;99.90;;;;;;5077824;28;20032;-71
2022/04/13 04:59:03;;;;;;;0.45;0.45;;;10.20;99.90;;;;;;5093466;28;20044;-71
2022/04/13 05:01:30;;;;;;;0.50;0.50;;;10.10;95.30;;;;;;5093111;28;20072;-70
2022/04/13 05:03:55;;;;;;;0.17;0.17;;;10.20;93.30;;;;;;5093264;28;20048;-71
2022/04/13 05:06:23;;;;;;;0.20;0.20;;;10.20;99.90;;;;;;5093256;28;20043;-70
2022/04/13 05:08:50;;;;;;;0.22;0.22;;;10.20;99.90;;;;;;5093551;28;20089;-71
2022/04/13 05:11:16;;;;;;;0.45;0.45;;;10.20;97.20;;;;;;5093044;28;20039;-71
2022/04/13 05:13:45;;;;;;;0.32;0.32;;;10.20;99.90;;;;;;5093171;28;20571;-70
2022/04/13 05:16:12;;;;;;;0.22;0.22;;;10.20;99.90;;;;;;5077538;28;20112;-71
2022/04/13 05:18:39;;;;;;;1.38;0.50;;;10.20;99.90;;;;;;5072900;28;20621;-71
2022/04/13 05:21:05;;;;;;;0.20;0.20;;;10.20;99.90;;;;;;5072818;28;20128;-70
2022/04/13 05:23:31;;;;;;;0.28;0.28;;;10.20;71.80;;;;;;5072819;28;20097;-71
2022/04/13 05:25:57;;;;;;;0.10;0.10;;;10.20;90.80;;;;;;5072645;28;20032;-71
2022/04/13 05:28:22;;;;;;;0.52;0.52;;;10.10;99.90;;;;;;5072831;28;20087;-70
2022/04/13 05:30:48;;;;;;;0.38;0.38;;;10.10;98.60;;;;;;5072972;28;20032;-70
2022/04/13 05:33:14;;;;;;;1.48;0.70;;;10.10;75.20;;;;;;5072626;28;20062;-70
2022/04/13 05:35:40;;;;;;;0.17;0.17;;;10.20;59.50;;;;;;5072957;28;20036;-70
2022/04/13 05:38:07;;;;;;;0.10;0.10;;;10.20;73.40;;;;;;5073046;28;20165;-70
2022/04/13 05:40:33;;;;;;;12.15;0.43;;;10.20;82.20;;;;;;5074648;28;20060;-71
2022/04/13 05:42:59;;;;;;;0.20;0.20;;;10.20;57.30;;;;;;5077281;28;20040;-71
2022/04/13 05:45:25;;;;;;;0.20;0.20;;;10.20;53.70;;;;;;5080131;28;20407;-71
2022/04/13 05:47:51;;;;;;;0.20;0.20;;;10.20;71.30;;;;;;5089690;28;20097;-71
2022/04/13 05:50:17;;;;;;;0.25;0.25;;;10.20;77.40;;;;;;5088103;28;20162;-71
2022/04/13 05:52:44;;;;;;;0.82;0.82;;;10.20;87.70;;;;;;5077363;28;20043;-71
2022/04/13 05:55:10;;;;;;;0.40;0.40;;;10.20;45.00;;;;;;5077178;28;20036;-72
2022/04/13 05:57:36;;;;;;;0.95;0.90;;;10.20;39.20;;;;;;5079580;28;20123;-72
2022/04/13 06:00:07;;;;;;;3.00;1.75;;;10.30;43.00;;;;;;5096385;28;20044;-72
2022/04/13 06:02:35;;;;;;;0.10;0.10;;;10.30;58.90;;;;;;5097196;28;20052;-72
2022/04/13 06:05:01;;;;;;;0.50;0.50;;;10.30;55.90;;;;;;5079608;28;20111;-72
2022/04/13 06:07:27;;;;;;;0.20;0.20;;;10.30;44.70;;;;;;5094966;28;20123;-73
2022/04/13 06:09:53;;;;;;;0.20;0.20;;;10.40;31.00;;;;;;5097038;28;20562;-72
2022/04/13 06:12:22;;;;;;;0.57;0.57;;;10.40;25.90;;;;;;5082356;28;20128;-72
2022/04/13 06:14:48;;;;;;;0.15;0.15;;;10.40;17.80;;;;;;5076590;28;20040;-72
2022/04/13 06:17:16;;;;;;;0.15;0.15;;;10.40;50.60;;;;;;5082943;28;20032;-72
2022/04/13 06:19:42;;;;;;;0.20;0.20;;;10.40;50.80;;;;;;5096889;28;20050;-72
2022/04/13 06:22:08;;;;;;;1.88;0.43;;;10.40;31.40;;;;;;5096477;28;20461;-72
2022/04/13 06:24:34;;;;;;;0.22;0.22;;;10.40;31.90;;;;;;5096493;28;20032;-72
2022/04/13 06:27:00;;;;;;;1.95;0.20;;;10.40;34.50;;;;;;5079911;28;20044;-72
2022/04/13 06:29:25;;;;;;;0.88;0.77;;;10.40;16.20;;;;;;5091009;28;20040;-72
2022/04/13 06:31:51;;;;;;;0.20;0.20;;;10.50;25.10;;;;;;5096304;28;20123;-72
2022/04/13 06:34:17;;;;;;;0.30;0.30;;;10.50;14.90;;;;;;5096291;28;20040;-72
2022/04/13 06:36:43;;;;;;;0.10;0.10;;;10.50;17.40;;;;;;5080064;28;20525;-72
2022/04/13 06:39:09;;;;;;;0.10;0.10;;;10.50;7.50;;;;;;5075977;28;20040;-72
2022/04/13 06:41:35;;;;;;;0.20;0.20;;;10.50;7.60;;;;;;5076103;28;20056;-72
2022/04/13 06:44:02;;;;;;;0.30;0.30;;;10.60;9.40;;;;;;5076775;28;20043;-72
2022/04/13 06:46:28;;;;;;;0.10;0.10;;;10.60;6.10;;;;;;5091674;28;20115;-72
2022/04/13 06:48:54;;;;;;;0.17;0.17;;;10.60;11.30;;;;;;5075577;28;20032;-73
2022/04/13 06:51:20;;;;;;;0.40;0.40;;;10.60;5.90;;;;;;5074416;28;20441;-72
2022/04/13 06:53:46;;;;;;;0.10;0.10;;;10.60;11.30;;;;;;5075710;28;20033;-72
2022/04/13 06:56:11;;;;;;;0.75;0.68;;;10.60;9.70;;;;;;5076108;28;20128;-75
2022/04/13 06:58:37;;;;;;;0.10;0.10;;;10.60;7.60;;;;;;5079285;28;20032;-72
2022/04/13 07:01:03;;;;;;;0.32;0.32;;;10.70;1.00;;;;;;5077164;28;20048;-71
2022/04/13 07:03:29;;;;;;;0.10;0.10;;;10.70;1.70;;;;;;5075419;28;20036;-72
2022/04/13 07:05:55;;;;;;;0.80;0.80;;;10.70;1.00;;;;;;5075323;28;20051;-72
2022/04/13 07:08:20;;;;;;;0.30;0.30;;;10.70;1.00;;;;;;5075120;28;20085;-72
2022/04/13 07:10:47;;;;;;;0.20;0.15;;;10.70;1.00;;;;;;5075239;28;20539;-71
2022/04/13 07:13:14;;;;;;;0.20;0.20;;;10.70;1.00;;;;;;5075253;28;20174;-72
2022/04/13 07:15:40;;;;;;;0.10;0.10;;;10.70;1.00;;;;;;5075181;28;20028;-72
2022/04/13 07:18:07;;;;;;;0.20;0.20;;;10.70;3.40;;;;;;5074970;28;20097;-72
2022/04/13 07:20:32;;;;;;;0.20;0.20;;;10.80;1.00;;;;;;5074978;28;20080;-72
2022/04/13 07:22:58;;;;;;;0.22;0.22;;;10.80;1.00;;;;;;5075066;28;20254;-72
2022/04/13 07:25:24;;;;;;;0.10;0.10;;;10.80;1.00;;;;;;5074905;28;20040;-72
2022/04/13 07:27:51;;;;;;;0.47;0.47;;;10.80;1.00;;;;;;5074751;28;20127;-72
2022/04/13 07:30:17;;;;;;;0.10;0.10;;;10.80;1.00;;;;;;5075103;28;20055;-72
2022/04/13 07:32:47;;;;;;;0.25;0.25;;;10.80;1.00;;;;;;5074879;28;20043;-72
2022/04/13 07:35:14;;;;;;;0.10;0.10;;;10.80;1.00;;;;;;5074587;28;20119;-72
2022/04/13 07:37:40;;;;;;;0.10;0.10;;;10.80;1.00;;;;;;5074889;28;20059;-72
2022/04/13 07:40:11;;;;;;;0.20;0.20;;;10.80;1.00;;;;;;5074100;28;20106;-72
2022/04/13 07:42:37;;;;;;;0.20;0.20;;;10.80;1.00;;;;;;5074771;28;20064;-72
2022/04/13 07:45:04;;;;;;;0.13;0.13;;;10.80;1.00;;;;;;5074664;28;20063;-72
2022/04/13 07:47:31;;;;;;;0.30;0.30;;;10.80;1.00;;;;;;5074620;28;20040;-72
2022/04/13 07:49:57;;;;;;;0.20;0.20;;;10.80;1.00;;;;;;5074316;28;20058;-72
2022/04/13 07:52:23;;;;;;;0.63;0.50;;;10.90;1.00;;;;;;5074257;28;20037;-72
2022/04/13 07:54:49;;;;;;;1.00;0.40;;;10.90;1.00;;;;;;5074029;28;20052;-72
2022/04/13 07:57:15;;;;;;;0.28;0.28;;;10.90;1.00;;;;;;5074433;28;20114;-72
2022/04/13 07:59:42;;;;;;;0.22;0.22;;;10.90;1.00;;;;;;5074358;28;20044;-72
2022/04/13 08:02:08;;;;;;;0.70;0.25;;;10.90;1.00;;;;;;5074084;28;20036;-72
2022/04/13 08:04:35;;;;;;;0.43;0.43;;;10.90;1.00;;;;;;5073852;28;20510;-72
2022/04/13 08:07:01;;;;;;;0.98;0.30;;;11.00;1.00;;;;;;5074264;28;20043;-72
2022/04/13 08:09:27;;;;;;;0.57;0.55;;;11.00;1.00;;;;;;5073862;28;20040;-72
2022/04/13 08:11:53;;;;;;;0.20;0.20;;;11.00;1.00;;;;;;5073899;28;20063;-72
2022/04/13 08:14:22;;;;;;;0.30;0.30;;;11.00;1.00;;;;;;5073766;28;20380;-72
2022/04/13 08:16:50;;;;;;;0.20;0.20;;;11.00;1.00;;;;;;5074129;28;20033;-72
2022/04/13 08:19:15;;;;;;;0.13;0.13;;;11.10;1.00;;;;;;5073619;28;20046;-72
2022/04/13 08:21:41;;;;;;;0.43;0.43;;;11.10;1.00;;;;;;5073833;28;20124;-72
2022/04/13 08:24:07;;;;;;;0.32;0.30;;;11.10;1.00;;;;;;5073702;28;20398;-72
2022/04/13 08:26:33;;;;;;;0.20;0.20;;;11.10;1.00;;;;;;5073817;28;20036;-72
2022/04/13 08:28:59;;;;;;;0.10;0.10;;;11.10;1.00;;;;;;5073755;28;20120;-72
2022/04/13 08:31:25;;;;;;;0.13;0.13;;;11.20;1.00;;;;;;5073642;28;20580;-72
2022/04/13 08:33:51;;;;;;;0.20;0.20;;;11.20;1.00;;;;;;5073709;28;20040;-72
2022/04/13 08:36:17;;;;;;;0.22;0.22;;;11.10;1.00;;;;;;5073408;28;20395;-72
2022/04/13 08:38:43;;;;;;;0.90;0.65;;;11.20;1.00;;;;;;5073432;28;20067;-72
2022/04/13 08:41:18;;;;;;;0.17;0.17;;;11.30;1.00;;;;;;5073069;28;20052;-72
2022/04/13 08:44:01;;;;;;;0.47;0.47;;;11.30;1.00;;;;;;5073547;28;20465;-72
2022/04/13 08:46:28;;;;;;;0.30;0.30;;;11.30;1.00;;;;;;5073269;28;20102;-72
2022/04/13 08:48:56;;;;;;;0.20;0.20;;;11.30;1.00;;;;;;5073256;28;20525;-72
2022/04/13 08:51:24;;;;;;;0.43;0.43;;;11.30;1.00;;;;;;5073553;28;20037;-72
2022/04/13 09:07:19;;;;;;;0.45;0.45;;;11.60;1.00;;;;;;5072831;28;20078;-72
2022/04/13 09:09:49;;;;;;;1.30;0.40;;;11.60;1.00;;;;;;5073070;28;20041;-72
2022/04/13 09:12:17;;;;;;;0.22;0.22;;;11.70;1.00;;;;;;5073108;28;20566;-72
2022/04/13 09:14:45;;;;;;;0.15;0.15;;;11.70;1.00;;;;;;5072143;28;20101;-72
2022/04/13 09:17:12;;;;;;;0.25;0.20;;;11.70;1.00;;;;;;5072869;28;20037;-72
2022/04/13 09:19:38;;;;;;;0.60;0.60;;;11.70;1.00;;;;;;5073260;28;20051;-72
2022/04/13 09:22:09;;;;;;;0.25;0.25;;;11.70;1.00;;;;;;5073140;28;20495;-72
2022/04/13 09:24:36;;;;;;;0.10;0.10;;;11.80;1.00;;;;;;5072861;28;20063;-71
2022/04/13 09:27:04;;;;;;;0.20;0.20;;;12.00;1.00;;;;;;5072874;28;20041;-72
2022/04/13 09:29:31;;;;;;;0.30;0.30;;;12.20;1.00;;;;;;5073278;28;20044;-72
2022/04/13 09:31:56;;;;;;;0.20;0.20;;;12.30;1.00;;;;;;5055041;28;20119;-72
2022/04/13 09:34:22;;;;;;;0.20;0.20;;;12.40;1.00;;;;;;5073061;28;20090;-72
2022/04/13 09:36:49;;;;;;;0.55;0.30;;;12.40;1.00;;;;;;5076477;28;20025;-71
2022/04/13 09:39:16;;;;;;;0.98;0.63;;;12.50;1.00;;;;;;5072635;28;20119;-71
2022/04/13 09:41:41;;;;;;;0.30;0.30;;;12.70;1.00;;;;;;5073281;28;20572;-71
2022/04/13 09:44:15;;;;;;;0.10;0.10;;;12.90;1.00;;;;;;5076599;28;20056;-71
2022/04/13 09:46:42;;;;;;;0.55;0.30;;;13.00;1.00;;;;;;5093096;28;20036;-70
2022/04/13 09:49:13;;;;;;;0.10;0.10;;;13.10;1.00;;;;;;5093107;28;20097;-71
2022/04/13 09:51:43;;;;;;;0.20;0.20;;;13.20;1.00;;;;;;5092887;28;20144;-71
2022/04/13 09:54:11;;;;;;;0.25;0.25;;;13.50;1.00;;;;;;5092907;28;20142;-71
2022/04/13 09:56:43;;;;;;;0.10;0.10;;;13.60;1.00;;;;;;5093025;28;20028;-71
2022/04/13 09:59:10;;;;;;;0.20;0.20;;;13.80;1.00;;;;;;5092976;28;20051;-71
2022/04/13 10:01:37;;;;;;;0.10;0.10;;;13.90;1.00;;;;;;5092837;28;20067;-71
2022/04/13 10:04:03;;;;;;;0.30;0.30;;;13.80;1.00;;;;;;5092958;28;20047;-71
2022/04/13 10:06:33;;;;;;;0.30;0.30;;;13.90;1.00;;;;;;5092635;28;20039;-71
2022/04/13 10:09:08;;;;;;;0.20;0.20;;;14.00;1.00;;;;;;5092882;28;20036;-71
2022/04/13 10:11:34;;;;;;;0.10;0.10;;;13.90;1.00;;;;;;5092043;28;20032;-71
2022/04/13 10:14:05;;;;;;;0.45;0.45;;;14.00;1.00;;;;;;5085776;28;20035;-71
2022/04/13 10:16:35;;;;;;;0.40;0.40;;;14.10;1.00;;;;;;5079913;28;20029;-71
2022/04/13 10:19:03;;;;;;;0.43;0.43;;;14.20;1.00;;;;;;5072671;28;20048;-71
2022/04/13 10:21:49;;;;;;;2.22;1.60;;;14.10;1.00;;;;;;5080376;28;20048;-71
2022/04/13 10:24:22;;;;;;;0.30;0.30;;;14.20;1.00;;;;;;5092391;28;20040;-71
2022/04/13 10:27:16;;;;;;;0.57;0.57;;;14.40;1.00;;;;;;5093023;28;20036;-71
2022/04/13 10:29:49;;;;;;;0.30;0.30;;;14.50;1.00;;;;;;5094011;28;20105;-72
2022/04/13 10:32:23;;;;;;;0.15;0.15;;;14.60;1.00;;;;;;5096050;28;20032;-70
2022/04/13 10:34:50;;;;;;;0.15;0.15;;;14.50;1.00;;;;;;5089661;28;20036;-72
2022/04/13 10:37:18;;;;;;;0.20;0.20;;;14.80;1.00;;;;;;5076190;28;20115;-72
2022/04/13 10:39:46;;;;;;;0.10;0.10;;;14.90;1.00;;;;;;5076444;28;20063;-72
2022/04/13 10:42:17;;;;;;;0.10;0.10;;;15.00;1.00;;;;;;5076707;28;20542;-72
2022/04/13 10:44:48;;;;;;;0.20;0.20;;;15.20;1.00;;;;;;5075917;28;20040;-72
2022/04/13 10:47:24;;;;;;;0.40;0.40;;;15.30;1.00;;;;;;5075897;28;20490;-72
2022/04/13 10:50:00;;;;;;;0.63;0.47;;;15.40;1.00;;;;;;5076738;28;20075;-72
2022/04/13 10:52:34;;;;;;;0.20;0.20;;;15.60;1.00;;;;;;5077691;28;20036;-73
2022/04/13 10:55:14;;;;;;;0.55;0.50;;;15.70;1.00;;;;;;5075710;28;20041;-71
2022/04/13 10:57:51;;;;;;;0.20;0.20;;;15.70;1.00;;;;;;5075840;28;20033;-72
2022/04/13 11:00:19;;;;;;;0.10;0.10;;;15.90;1.00;;;;;;5075570;28;20378;-72
2022/04/13 11:02:50;;;;;;;0.20;0.20;;;16.00;1.00;;;;;;5075771;28;20115;-72
2022/04/13 11:05:16;;;;;;;0.47;0.47;;;16.60;1.00;;;;;;5075498;28;20037;-72
2022/04/13 11:07:43;;;;;;;0.20;0.20;;;16.40;1.00;;;;;;5083343;28;20044;-70
2022/04/13 11:10:17;;;;;;;0.20;0.20;;;16.80;1.00;;;;;;5090249;28;20055;-70
2022/04/13 11:12:44;;;;;;;0.20;0.20;;;16.80;1.00;;;;;;5093876;28;20044;-70
2022/04/13 11:15:10;;;;;;;0.38;0.38;;;16.70;1.00;;;;;;5083408;28;20482;-70
2022/04/13 11:17:43;;;;;;;0.20;0.20;;;16.50;1.00;;;;;;5086299;28;20081;-70
2022/04/13 11:20:58;;;;;;;18.35;0.68;;;16.70;1.00;;;;;;5075361;28;20040;-70
2022/04/13 11:23:51;;;;;;;0.20;0.20;;;16.40;1.00;;;;;;5088123;28;20047;-71
2022/04/13 11:26:29;;;;;;;0.20;0.20;;;16.60;1.00;;;;;;5075079;28;20040;-70
2022/04/13 11:29:09;;;;;;;0.32;0.32;;;16.30;1.00;;;;;;5089717;28;20582;-71
2022/04/13 11:32:00;;;;;;;0.10;0.10;;;16.40;1.00;;;;;;5090391;28;20074;-70
2022/04/13 11:34:29;;;;;;;0.38;0.38;;;15.90;1.00;;;;;;5090666;28;20057;-70
2022/04/13 11:37:00;;;;;;;0.20;0.20;;;16.10;1.00;;;;;;5088882;28;20069;-68
2022/04/13 11:39:48;;;;;;;0.93;0.45;;;16.40;1.00;;;;;;5080777;28;20044;-70
2022/04/13 11:42:21;;;;;;;0.10;0.10;;;16.10;1.00;;;;;;5076864;28;20037;-70
2022/04/13 11:44:52;;;;;;;0.20;0.20;;;16.40;1.00;;;;;;5076354;28;20036;-70
2022/04/13 11:47:18;;;;;;;;;;;16.40;1.00;;;;;;5095229;28;20038;-70
2022/04/13 11:50:00;;;;;;;0.30;0.30;;;16.00;1.00;;;;;;5084285;28;19962;-70
2022/04/13 11:52:43;;;;;;;1.85;1.20;;;16.20;1.00;;;;;;5085904;28;20031;-69
2022/04/13 11:55:26;;;;;;;0.38;0.30;;;16.20;1.00;;;;;;5073998;28;20063;-70
2022/04/13 11:57:55;;;;;;;0.45;0.45;;;16.30;1.00;;;;;;5080667;28;20062;-70
2022/04/13 12:00:41;;;;;;;0.10;0.10;;;16.70;1.00;;;;;;5086375;28;20044;-69
2022/04/13 12:03:17;;;;;;;0.30;0.30;;;16.40;1.00;;;;;;5089888;28;20036;-68
2022/04/13 12:05:48;;;;;;;0.20;0.20;;;16.40;1.00;;;;;;5090106;28;20065;-69
2022/04/13 12:08:15;;;;;;;;;;;16.50;1.00;;;;;;5081573;28;20418;-70
2022/04/13 12:10:54;;;;;;;1.00;0.90;;;16.60;1.00;;;;;;5093593;28;20354;-70
2022/04/13 12:13:20;;;;;;;0.60;0.60;;;16.00;1.00;;;;;;5086476;28;20116;-70
2022/04/13 12:15:51;;;;;;;0.22;0.22;;;16.10;1.00;;;;;;5093999;28;20127;-70
2022/04/13 12:18:17;;;;;;;;;;;16.40;1.00;;;;;;5094477;28;20043;-69
2022/04/13 12:20:44;;;;;;;0.30;0.30;;;16.20;1.00;;;;;;5094048;28;19942;-69
2022/04/13 12:23:18;;;;;;;0.43;0.43;;;16.60;1.00;;;;;;5085721;28;20036;-69
2022/04/13 12:25:47;;;;;;;0.15;0.15;;;16.50;1.00;;;;;;5077362;28;20048;-69
2022/04/13 12:28:14;;;;;;;0.20;0.20;;;16.20;1.00;;;;;;5073203;28;20479;-69
2022/04/13 12:30:41;;;;;;;0.68;0.40;;;16.70;1.00;;;;;;5080531;28;20066;-69
2022/04/13 12:33:23;;;;;;;2.53;0.40;;;16.70;1.00;;;;;;5078376;28;20028;-69
2022/04/13 12:36:06;;;;;;;0.22;0.22;;;16.50;1.00;;;;;;5084851;28;20078;-69
2022/04/13 12:38:36;;;;;;;3.85;0.82;;;16.60;1.00;;;;;;5077140;28;20044;-69
2022/04/13 12:41:04;;;;;;;0.35;0.35;;;16.50;1.00;;;;;;5091263;28;20160;-69
2022/04/13 12:43:31;;;;;;;0.50;0.50;;;16.80;1.00;;;;;;5093527;28;20054;-69
2022/04/13 12:45:57;;;;;;;0.22;0.22;;;16.90;1.00;;;;;;5093819;28;20040;-69
2022/04/13 12:48:29;;;;;;;1.52;0.77;;;16.80;1.00;;;;;;5081281;28;20099;-69
2022/04/13 12:51:00;;;;;;;0.20;0.20;;;16.60;1.00;;;;;;5077181;28;20055;-70
2022/04/13 12:53:30;;;;;;;1.17;1.08;;;16.60;1.00;;;;;;5071822;28;20063;-70
2022/04/13 12:55:58;;;;;;;0.20;0.20;;;17.10;1.00;;;;;;5087032;28;20106;-70
2022/04/13 12:58:24;;;;;;;0.28;0.28;;;17.20;1.00;;;;;;5089901;28;20118;-70
2022/04/13 13:00:55;;;;;;;0.10;0.10;;;17.40;1.00;;;;;;5093688;28;20126;-70
2022/04/13 13:03:22;;;;;;;2.97;0.75;;;17.70;1.00;;;;;;5082313;28;20580;-71
2022/04/13 13:05:49;;;;;;;0.28;0.25;;;17.80;1.00;;;;;;5081447;28;20044;-71
2022/04/13 13:08:15;;;;;;;0.22;0.22;;;17.50;1.00;;;;;;5093084;28;20119;-71
2022/04/13 13:10:48;;;;;;;0.28;0.28;;;17.40;1.00;;;;;;5082666;28;20352;-71
2022/04/13 13:13:19;;;;;;;0.10;0.10;;;17.50;1.00;;;;;;5080810;28;20060;-69